createdAt,value
2023-04-28T00:01:34.954Z,6.27
2023-04-28T00:04:06.643Z,4.90
2023-04-28T00:06:37.989Z,5.70
2023-04-28T00:09:11.025Z,6.43
2023-04-28T00:11:44.988Z,5.40
2023-04-28T00:14:16.804Z,6.40
2023-04-28T00:16:49.607Z,6.33
2023-04-28T00:19:21.222Z,6.63
2023-04-28T00:21:52.635Z,5.73
2023-04-28T00:24:24.139Z,6.33
2023-04-28T00:26:56.198Z,6.43
2023-04-28T00:29:28.749Z,5.53
2023-04-28T00:32:00.048Z,5.80
2023-04-28T00:34:37.183Z,6.57
2023-04-28T00:37:08.479Z,6.40
2023-04-28T00:39:41.474Z,6.20
2023-04-28T00:42:15.886Z,6.37
2023-04-28T00:44:47.162Z,5.90
2023-04-28T00:47:19.370Z,6.37
2023-04-28T00:49:50.733Z,7.63
2023-04-28T00:52:22.002Z,6.93
2023-04-28T00:54:53.327Z,6.30
2023-04-28T00:57:24.609Z,6.80
2023-04-28T00:59:55.982Z,6.33
2023-04-28T01:02:29.228Z,6.43
2023-04-28T01:05:01.781Z,6.27
2023-04-28T01:07:34.774Z,6.10
2023-04-28T01:10:07.042Z,5.57
2023-04-28T01:12:38.322Z,5.60
2023-04-28T01:15:17.360Z,6.30
2023-04-28T01:17:48.776Z,5.97
2023-04-28T01:20:20.076Z,5.70
2023-04-28T01:22:51.492Z,6.00
2023-04-28T01:25:22.788Z,5.20
2023-04-28T01:27:54.050Z,6.20
2023-04-28T01:30:25.429Z,6.27
2023-04-28T01:32:56.748Z,5.67
2023-04-28T01:35:28.241Z,5.87
2023-04-28T01:37:59.742Z,6.03
2023-04-28T01:40:31.726Z,6.47
2023-04-28T01:43:03.021Z,5.70
2023-04-28T01:45:34.342Z,6.53
2023-04-28T01:48:05.971Z,5.90
2023-04-28T01:50:37.397Z,6.10
2023-04-28T01:53:08.744Z,5.47
2023-04-28T01:55:40.042Z,5.53
2023-04-28T01:58:11.309Z,6.13
2023-04-28T02:00:42.615Z,5.40
2023-04-28T02:03:14.193Z,6.17
2023-04-28T02:05:45.671Z,5.87
2023-04-28T02:08:16.975Z,5.90
2023-04-28T02:10:48.279Z,5.83
2023-04-28T02:13:19.588Z,4.83
2023-04-28T02:15:50.905Z,5.67
2023-04-28T02:18:22.187Z,5.07
2023-04-28T02:20:53.503Z,5.97
2023-04-28T02:23:24.772Z,5.80
2023-04-28T02:26:03.581Z,6.00
2023-04-28T02:28:34.881Z,5.17
2023-04-28T02:31:07.950Z,5.03
2023-04-28T02:33:39.387Z,5.57
2023-04-28T02:36:11.290Z,5.37
2023-04-28T02:38:42.604Z,6.17
2023-04-28T02:41:15.243Z,5.67
2023-04-28T02:43:46.511Z,5.80
2023-04-28T02:46:17.904Z,5.53
2023-04-28T02:48:49.206Z,5.90
2023-04-28T02:51:20.551Z,6.07
2023-04-28T02:53:51.890Z,6.23
2023-04-28T02:56:23.208Z,6.53
2023-04-28T02:58:54.483Z,5.60
2023-04-28T03:01:26.027Z,5.70
2023-04-28T03:03:57.582Z,6.27
2023-04-28T03:06:29.108Z,5.90
2023-04-28T03:09:00.367Z,5.33
2023-04-28T03:11:31.618Z,6.37
2023-04-28T03:14:02.888Z,5.83
2023-04-28T03:16:34.386Z,5.37
2023-04-28T03:19:05.833Z,5.57
2023-04-28T03:21:37.120Z,4.80
2023-04-28T03:24:08.446Z,5.43
2023-04-28T03:26:39.717Z,5.70
2023-04-28T03:29:11.436Z,5.57
2023-04-28T03:31:42.856Z,5.53
2023-04-28T03:34:14.381Z,5.80
2023-04-28T03:36:45.949Z,5.70
2023-04-28T03:39:17.238Z,5.47
2023-04-28T03:41:48.487Z,4.97
2023-04-28T03:44:19.806Z,5.77
2023-04-28T03:46:51.194Z,4.87
2023-04-28T03:49:22.563Z,5.27
2023-04-28T03:51:53.887Z,5.13
2023-04-28T03:54:25.148Z,5.30
2023-04-28T03:56:56.659Z,5.20
2023-04-28T03:59:28.210Z,4.40
2023-04-28T04:01:59.593Z,5.60
2023-04-28T04:04:31.336Z,6.63
2023-04-28T04:07:03.133Z,4.97
2023-04-28T04:09:34.402Z,5.27
2023-04-28T04:12:06.403Z,5.17
2023-04-28T04:14:37.670Z,5.27
2023-04-28T04:17:09.251Z,5.30
2023-04-28T04:19:41.380Z,5.60
2023-04-28T04:22:12.636Z,5.20
2023-04-28T04:24:44.015Z,4.50
2023-04-28T04:27:15.481Z,5.23
2023-04-28T04:29:47.088Z,5.40
2023-04-28T04:32:18.776Z,4.57
2023-04-28T04:34:50.149Z,5.20
2023-04-28T04:37:21.412Z,5.37
2023-04-28T04:39:53.734Z,4.37
2023-04-28T04:42:25.999Z,4.73
2023-04-28T04:45:00.661Z,5.13
2023-04-28T04:47:43.731Z,4.93
2023-04-28T04:50:24.171Z,5.00
2023-04-28T04:52:57.321Z,4.60
2023-04-28T04:55:30.800Z,5.27
2023-04-28T04:58:02.433Z,4.83
2023-04-28T05:00:34.036Z,5.07
2023-04-28T05:03:06.265Z,4.40
2023-04-28T05:05:37.884Z,4.83
2023-04-28T05:08:09.310Z,3.93
2023-04-28T05:10:40.828Z,4.57
2023-04-28T05:13:12.159Z,3.90
2023-04-28T05:15:43.970Z,4.60
2023-04-28T05:18:15.759Z,3.30
2023-04-28T05:20:47.239Z,3.70
2023-04-28T05:23:18.530Z,4.10
2023-04-28T05:25:49.922Z,3.80
2023-04-28T05:28:22.154Z,4.00
2023-04-28T05:30:53.736Z,3.73
2023-04-28T05:33:25.103Z,4.43
2023-04-28T05:35:56.471Z,4.37
2023-04-28T05:38:27.806Z,3.93
2023-04-28T05:40:59.137Z,3.90
2023-04-28T05:43:30.414Z,3.50
2023-04-28T05:46:01.802Z,3.97
2023-04-28T05:48:33.131Z,3.13
2023-04-28T05:51:04.510Z,2.70
2023-04-28T05:53:35.861Z,3.47
2023-04-28T05:56:07.797Z,2.73
2023-04-28T05:58:39.112Z,3.60
2023-04-28T06:01:11.606Z,3.10
2023-04-28T06:03:43.374Z,3.70
2023-04-28T06:06:15.102Z,2.67
2023-04-28T06:08:47.629Z,3.33
2023-04-28T06:11:22.147Z,2.50
2023-04-28T06:13:53.507Z,3.13
2023-04-28T06:16:24.876Z,2.87
2023-04-28T06:18:56.228Z,3.03
2023-04-28T06:21:28.582Z,3.07
2023-04-28T06:24:00.722Z,3.00
2023-04-28T06:26:32.060Z,3.23
2023-04-28T06:29:03.563Z,2.60
2023-04-28T06:31:34.965Z,2.80
2023-04-28T06:34:06.386Z,2.70
2023-04-28T06:36:37.786Z,3.03
2023-04-28T06:39:09.146Z,2.77
2023-04-28T06:41:41.083Z,2.97
2023-04-28T06:44:13.096Z,2.50
2023-04-28T06:46:46.483Z,2.83
2023-04-28T06:49:18.043Z,2.57
2023-04-28T06:51:49.327Z,2.70
2023-04-28T06:54:20.694Z,2.73
2023-04-28T06:56:52.113Z,2.70
2023-04-28T06:59:23.480Z,2.80
2023-04-28T07:01:54.879Z,3.07
2023-04-28T07:04:27.186Z,2.10
2023-04-28T07:06:58.680Z,2.80
2023-04-28T07:09:31.486Z,2.80
2023-04-28T07:12:04.190Z,2.67
2023-04-28T07:14:35.583Z,2.30
2023-04-28T07:17:06.871Z,2.60
2023-04-28T07:19:38.147Z,2.60
2023-04-28T07:22:09.527Z,2.40
2023-04-28T07:24:40.852Z,2.27
2023-04-28T07:27:12.723Z,2.87
2023-04-28T07:29:44.119Z,2.10
2023-04-28T07:32:15.677Z,2.87
2023-04-28T07:34:47.100Z,2.77
2023-04-28T07:37:18.794Z,2.37
2023-04-28T07:39:50.454Z,2.90
2023-04-28T07:42:22.120Z,2.43
2023-04-28T07:44:53.507Z,2.30
2023-04-28T07:47:25.054Z,2.87
2023-04-28T07:49:56.476Z,2.13
2023-04-28T07:52:27.997Z,2.10
2023-04-28T07:54:59.703Z,2.23
2023-04-28T07:57:31.371Z,2.53
2023-04-28T08:00:03.335Z,2.20
2023-04-28T08:02:34.831Z,2.90
2023-04-28T08:05:08.028Z,2.30
2023-04-28T08:07:39.433Z,2.97
2023-04-28T08:10:11.599Z,2.80
2023-04-28T08:12:45.045Z,2.47
2023-04-28T08:15:17.305Z,3.10
2023-04-28T08:17:50.096Z,3.20
2023-04-28T08:20:24.443Z,2.60
2023-04-28T08:22:56.670Z,3.13
2023-04-28T08:25:28.453Z,2.90
2023-04-28T08:28:00.252Z,2.93
2023-04-28T08:30:32.353Z,3.20
2023-04-28T08:33:04.076Z,2.97
2023-04-28T08:35:35.865Z,3.40
2023-04-28T08:38:08.204Z,3.30
2023-04-28T08:40:40.764Z,2.73
2023-04-28T08:43:13.611Z,3.03
2023-04-28T08:45:45.176Z,3.20
2023-04-28T08:48:21.477Z,3.17
2023-04-28T08:50:54.586Z,3.70
2023-04-28T08:53:26.860Z,3.40
2023-04-28T08:55:58.463Z,5.53
2023-04-28T08:58:29.732Z,4.03
2023-04-28T09:01:04.552Z,3.17
2023-04-28T09:03:36.395Z,3.20
2023-04-28T09:06:08.084Z,3.00
2023-04-28T09:08:39.440Z,3.37
2023-04-28T09:11:13.492Z,3.90
2023-04-28T09:13:44.892Z,4.00
2023-04-28T09:16:16.345Z,4.43
2023-04-28T09:18:58.110Z,3.97
2023-04-28T09:21:29.532Z,3.57
2023-04-28T09:24:00.869Z,3.53
2023-04-28T09:26:48.959Z,3.00
2023-04-28T09:29:20.345Z,3.00
2023-04-28T09:31:51.976Z,3.27
2023-04-28T09:34:23.395Z,3.40
2023-04-28T09:36:54.711Z,3.33
2023-04-28T09:39:30.994Z,3.33
2023-04-28T09:42:03.623Z,3.53
2023-04-28T09:44:34.979Z,3.40
2023-04-28T09:47:22.192Z,3.93
2023-04-28T09:50:01.789Z,4.00
2023-04-28T09:52:34.692Z,4.20
2023-04-28T09:55:08.576Z,3.77
2023-04-28T09:57:40.530Z,4.17
2023-04-28T10:00:12.211Z,3.27
2023-04-28T10:02:44.277Z,4.20
2023-04-28T10:05:16.598Z,3.83
2023-04-28T10:07:48.344Z,4.40
2023-04-28T10:10:20.229Z,3.90
2023-04-28T10:12:51.939Z,3.30
2023-04-28T10:15:23.509Z,3.63
2023-04-28T10:17:56.385Z,3.27
2023-04-28T10:20:29.854Z,3.50
2023-04-28T10:23:47.820Z,4.00
2023-04-28T10:26:20.025Z,3.33
2023-04-28T10:28:52.053Z,4.10
2023-04-28T10:31:23.676Z,4.80
2023-04-28T10:33:56.185Z,4.10
2023-04-28T10:36:47.264Z,3.90
2023-04-28T10:39:18.775Z,4.37
2023-04-28T10:41:50.060Z,4.10
2023-04-28T10:44:30.291Z,4.20
2023-04-28T10:47:07.577Z,3.97
2023-04-28T10:50:02.982Z,3.93
2023-04-28T10:52:40.640Z,3.53
2023-04-28T10:55:39.779Z,3.07
2023-04-28T10:58:17.805Z,3.53
2023-04-28T11:00:50.745Z,3.37
2023-04-28T11:03:40.966Z,3.77
2023-04-28T11:06:29.638Z,3.73
2023-04-28T11:09:14.507Z,3.58
2023-04-28T11:11:56.050Z,3.67
2023-04-28T11:14:31.448Z,3.90
2023-04-28T11:17:11.203Z,3.53
2023-04-28T11:19:51.302Z,3.83
2023-04-28T11:22:23.857Z,3.60
2023-04-28T11:25:00.518Z,3.30
2023-04-28T11:27:33.272Z,3.30
2023-04-28T11:30:19.853Z,3.83
2023-04-28T11:32:51.643Z,3.95
2023-04-28T11:35:23.088Z,3.67
2023-04-28T11:38:06.628Z,3.25
2023-04-28T11:40:37.993Z,3.70
2023-04-28T11:43:09.373Z,3.75
2023-04-28T11:45:46.410Z,3.00
2023-04-28T11:48:22.229Z,3.50
2023-04-28T11:50:54.603Z,3.90
2023-04-28T11:53:44.922Z,3.75
2023-04-28T11:56:16.256Z,3.50
2023-04-28T11:59:01.693Z,3.75
2023-04-28T12:02:08.711Z,3.70
2023-04-28T12:04:43.046Z,3.45
2023-04-28T12:11:03.771Z,3.95
2023-04-28T12:13:26.808Z,4.10
2023-04-28T12:19:12.882Z,3.17
2023-04-28T12:21:44.570Z,3.58
2023-04-28T12:24:21.668Z,3.35
2023-04-28T12:27:46.527Z,3.40
2023-04-28T12:30:24.940Z,4.05
2023-04-28T12:37:15.981Z,3.72
2023-04-28T12:40:04.858Z,3.30
2023-04-28T12:42:43.048Z,3.20
2023-04-28T12:45:38.887Z,3.33
2023-04-28T12:48:42.470Z,3.47
2023-04-28T12:51:14.522Z,3.45
2023-04-28T12:53:46.299Z,3.53
2023-04-28T12:57:27.099Z,3.40
2023-04-28T12:59:58.824Z,3.95
2023-04-28T13:03:17.038Z,4.10
2023-04-28T13:06:12.894Z,3.70
2023-04-28T13:08:47.953Z,3.65
2023-04-28T13:11:22.859Z,3.88
2023-04-28T13:13:56.808Z,3.67
2023-04-28T13:16:34.940Z,4.03
2023-04-28T13:19:38.980Z,3.87
2023-04-28T13:22:10.972Z,3.43
2023-04-28T13:24:43.036Z,3.50
2023-04-28T13:27:14.773Z,3.20
2023-04-28T13:29:58.653Z,4.13
2023-04-28T13:32:30.414Z,4.13
2023-04-28T13:35:04.934Z,4.20
2023-04-28T13:37:42.503Z,3.90
2023-04-28T13:40:21.219Z,3.40
2023-04-28T13:43:10.895Z,4.70
2023-04-28T13:45:42.711Z,3.97
2023-04-28T13:48:16.045Z,3.63
2023-04-28T13:51:13.535Z,3.40
2023-04-28T13:56:52.426Z,3.37
2023-04-28T13:56:57.325Z,3.40
2023-04-28T14:01:58.964Z,3.90
2023-04-28T14:08:06.355Z,3.80
2023-04-28T14:11:10.681Z,3.85
2023-04-28T14:19:58.091Z,4.33
2023-04-28T14:22:30.677Z,3.33
2023-04-28T14:25:02.346Z,3.93
2023-04-28T14:27:34.055Z,3.70
2023-04-28T14:30:19.839Z,5.10
2023-04-28T14:32:57.373Z,3.03
2023-04-28T14:38:58.881Z,3.63
2023-04-28T14:41:55.424Z,3.87
2023-04-28T14:47:41.273Z,3.23
2023-04-28T14:50:13.985Z,3.33
2023-04-28T14:52:45.615Z,3.27
2023-04-28T14:55:16.933Z,3.20
2023-04-28T14:57:48.291Z,3.67
2023-04-28T15:00:19.783Z,3.60
2023-04-28T15:02:51.310Z,3.13
2023-04-28T15:05:22.764Z,3.10
2023-04-28T15:07:54.034Z,3.13
2023-04-28T15:10:30.720Z,2.73
2023-04-28T15:13:01.960Z,3.30
2023-04-28T15:15:34.945Z,3.27
2023-04-28T15:18:06.513Z,3.20
2023-04-28T15:20:38.218Z,3.53
2023-04-28T15:23:10.591Z,3.50
2023-04-28T15:25:41.847Z,3.37
2023-04-28T15:28:13.132Z,3.40
2023-04-28T15:30:44.604Z,3.77
2023-04-28T15:33:18.834Z,3.40
2023-04-28T15:35:50.209Z,4.50
2023-04-28T15:38:21.905Z,4.17
2023-04-28T15:40:53.336Z,4.10
2023-04-28T15:43:25.086Z,4.00
2023-04-28T15:45:56.836Z,4.53
2023-04-28T15:48:28.446Z,4.47
2023-04-28T15:50:59.836Z,4.20
2023-04-28T15:53:31.312Z,4.37
2023-04-28T15:56:03.979Z,4.23
2023-04-28T15:58:35.378Z,4.60
2023-04-28T16:01:06.753Z,3.80
2023-04-28T16:03:39.185Z,4.23
2023-04-28T16:06:11.016Z,3.67
2023-04-28T16:08:42.716Z,4.73
2023-04-28T16:11:17.719Z,4.37
2023-04-28T16:13:49.837Z,4.73
2023-04-28T16:16:21.152Z,4.90
2023-04-28T16:18:52.822Z,5.00
2023-04-28T16:21:24.985Z,5.33
2023-04-28T16:23:56.340Z,5.70
2023-04-28T16:26:27.601Z,5.47
2023-04-28T16:28:58.928Z,5.17
2023-04-28T16:31:31.241Z,5.57
2023-04-28T16:34:02.617Z,5.43
2023-04-28T16:36:34.055Z,5.33
2023-04-28T16:39:05.502Z,4.97
2023-04-28T16:41:37.561Z,4.90
2023-04-28T16:44:08.901Z,5.63
2023-04-28T16:46:41.344Z,5.20
2023-04-28T16:49:12.906Z,5.10
2023-04-28T16:52:04.560Z,5.43
2023-04-28T16:54:35.841Z,5.40
2023-04-28T16:57:07.603Z,4.70
2023-04-28T16:59:38.910Z,4.77
2023-04-28T17:02:10.193Z,4.77
2023-04-28T17:04:41.852Z,5.40
2023-04-28T17:07:13.295Z,4.77
2023-04-28T17:09:44.573Z,5.50
2023-04-28T17:12:16.660Z,5.37
2023-04-28T17:14:47.995Z,4.93
2023-04-28T17:17:19.253Z,5.40
2023-04-28T17:19:50.716Z,5.07
2023-04-28T17:22:22.439Z,5.30
2023-04-28T17:24:53.806Z,6.13
2023-04-28T17:27:25.309Z,5.33
2023-04-28T17:29:56.686Z,5.53
2023-04-28T17:32:30.731Z,5.33
2023-04-28T17:35:02.317Z,5.70
2023-04-28T17:37:34.510Z,6.50
2023-04-28T17:40:06.374Z,6.77
2023-04-28T17:42:37.869Z,6.07
2023-04-28T17:45:09.949Z,6.93
2023-04-28T17:47:41.313Z,6.33
2023-04-28T17:50:12.586Z,5.73
2023-04-28T17:52:44.266Z,7.27
2023-04-28T17:55:15.668Z,6.50
2023-04-28T17:57:46.935Z,7.30
2023-04-28T18:00:18.277Z,6.73
2023-04-28T18:02:49.625Z,7.30
2023-04-28T18:05:23.953Z,6.20
2023-04-28T18:07:55.894Z,6.10
2023-04-28T18:10:28.079Z,6.97
2023-04-28T18:12:59.423Z,7.67
2023-04-28T18:15:30.682Z,7.07
2023-04-28T18:18:02.067Z,7.03
2023-04-28T18:20:33.385Z,8.73
2023-04-28T18:23:05.926Z,9.07
2023-04-28T18:25:37.665Z,8.73
2023-04-28T18:28:10.312Z,8.13
2023-04-28T18:30:41.562Z,8.33
2023-04-28T18:33:13.437Z,7.73
2023-04-28T18:35:46.426Z,7.33
2023-04-28T18:38:18.255Z,8.50
2023-04-28T18:40:49.514Z,7.60
2023-04-28T18:43:21.616Z,7.10
2023-04-28T18:45:53.295Z,7.33
2023-04-28T18:48:25.602Z,7.70
2023-04-28T18:50:57.287Z,8.30
2023-04-28T18:53:29.070Z,7.93
2023-04-28T18:56:00.377Z,8.07
2023-04-28T18:58:32.030Z,8.77
2023-04-28T19:01:03.925Z,8.30
2023-04-28T19:03:35.368Z,8.30
2023-04-28T19:06:06.755Z,8.60
2023-04-28T19:08:42.572Z,7.53
2023-04-28T19:11:13.903Z,7.82
2023-04-28T19:13:45.336Z,7.97
2023-04-28T19:16:17.867Z,8.37
2023-04-28T19:18:49.254Z,8.43
2023-04-28T19:21:20.540Z,7.83
2023-04-28T19:23:51.829Z,8.27
2023-04-28T19:26:23.239Z,8.10
2023-04-28T19:28:54.585Z,9.20
2023-04-28T19:31:25.907Z,8.80
2023-04-28T19:33:57.714Z,8.87
2023-04-28T19:36:29.011Z,8.93
2023-04-28T19:39:00.281Z,9.30
2023-04-28T19:41:31.732Z,11.07
2023-04-28T19:44:03.314Z,9.27
2023-04-28T19:46:35.724Z,9.43
2023-04-28T19:49:07.422Z,9.83
2023-04-28T19:51:39.460Z,9.77
2023-04-28T19:54:10.774Z,9.53
2023-04-28T19:56:42.036Z,10.30
2023-04-28T19:59:13.302Z,11.27
2023-04-28T20:01:44.747Z,10.37
2023-04-28T20:04:16.736Z,10.40
2023-04-28T20:06:48.119Z,10.87
2023-04-28T20:09:19.476Z,10.77
2023-04-28T20:11:50.873Z,11.00
2023-04-28T20:14:22.318Z,12.27
2023-04-28T20:16:53.588Z,11.17
2023-04-28T20:19:25.364Z,11.03
2023-04-28T20:21:56.846Z,11.20
2023-04-28T20:24:28.337Z,11.07
2023-04-28T20:26:59.639Z,10.60
2023-04-28T20:29:34.280Z,11.33
2023-04-28T20:32:12.493Z,13.40
2023-04-28T20:34:44.882Z,14.27
2023-04-28T20:37:16.575Z,13.77
2023-04-28T20:39:48.716Z,13.80
2023-04-28T20:42:20.139Z,13.93
2023-04-28T20:44:51.911Z,14.33
2023-04-28T20:47:23.334Z,15.00
2023-04-28T20:49:54.630Z,15.40
2023-04-28T20:52:25.901Z,15.90
2023-04-28T20:54:58.745Z,15.20
2023-04-28T20:57:30.294Z,15.33
2023-04-28T21:00:01.566Z,14.87
2023-04-28T21:02:34.020Z,14.40
2023-04-28T21:05:05.680Z,14.70
2023-04-28T21:07:36.965Z,14.30
2023-04-28T21:10:08.846Z,13.97
2023-04-28T21:12:41.292Z,15.60
2023-04-28T21:15:13.331Z,15.30
2023-04-28T21:17:44.637Z,14.53
2023-04-28T21:20:16.090Z,15.53
2023-04-28T21:22:47.460Z,14.03
2023-04-28T21:25:18.890Z,13.90
2023-04-28T21:27:50.443Z,13.27
2023-04-28T21:30:22.109Z,15.83
2023-04-28T21:32:53.703Z,15.87
2023-04-28T21:35:25.206Z,16.53
2023-04-28T21:37:56.530Z,16.23
2023-04-28T21:40:28.779Z,15.53
2023-04-28T21:43:00.055Z,15.00
2023-04-28T21:45:31.487Z,16.00
2023-04-28T21:48:02.884Z,15.27
2023-04-28T21:50:35.998Z,16.33
2023-04-28T21:53:07.351Z,15.87
2023-04-28T21:55:39.662Z,14.93
2023-04-28T21:58:11.501Z,16.47
2023-04-28T22:00:44.896Z,14.60
2023-04-28T22:03:16.628Z,15.70
2023-04-28T22:05:48.406Z,15.30
2023-04-28T22:08:19.862Z,14.70
2023-04-28T22:10:51.447Z,16.37
2023-04-28T22:13:22.913Z,15.20
2023-04-28T22:15:55.988Z,17.97
2023-04-28T22:18:28.350Z,19.20
2023-04-28T22:21:01.013Z,16.80
2023-04-28T22:23:32.564Z,17.00
2023-04-28T22:26:04.535Z,17.13
2023-04-28T22:28:36.012Z,17.63
2023-04-28T22:31:07.368Z,15.47
2023-04-28T22:33:39.000Z,16.93
2023-04-28T22:36:10.389Z,17.33
2023-04-28T22:38:41.738Z,16.17
2023-04-28T22:41:13.300Z,17.17
2023-04-28T22:43:44.691Z,15.77
2023-04-28T22:46:16.065Z,16.13
2023-04-28T22:48:47.383Z,16.03
2023-04-28T22:51:18.890Z,16.53
2023-04-28T22:53:50.652Z,15.70
2023-04-28T22:56:22.166Z,13.67
2023-04-28T22:58:53.519Z,16.00
2023-04-28T23:01:24.905Z,17.60
2023-04-28T23:03:56.302Z,15.37
2023-04-28T23:06:32.027Z,16.40
2023-04-28T23:09:03.588Z,15.35
2023-04-28T23:11:34.880Z,15.53
2023-04-28T23:14:06.252Z,16.10
2023-04-28T23:16:37.797Z,16.33
2023-04-28T23:19:09.096Z,15.60
2023-04-28T23:21:40.429Z,16.00
2023-04-28T23:24:11.679Z,14.87
2023-04-28T23:26:42.960Z,15.33
2023-04-28T23:29:14.380Z,14.13
2023-04-28T23:31:51.992Z,15.20
2023-04-28T23:34:24.128Z,13.93
2023-04-28T23:36:55.533Z,14.90
2023-04-28T23:39:29.783Z,14.20
2023-04-28T23:42:02.259Z,14.90
2023-04-28T23:44:33.549Z,14.43
2023-04-28T23:47:04.841Z,13.30
2023-04-28T23:49:36.235Z,14.30
2023-04-28T23:52:07.874Z,13.97
2023-04-28T23:54:39.157Z,13.47
2023-04-28T23:57:10.592Z,14.10
2023-04-28T23:59:42.400Z,14.00
